Time;durP1;ratioP1;P1;durP2;ratioP2;P2;SDS_P1;SDS_P2;PMS_P1;PMS_P2;Temp;Humidity;BMP_temperature;BMP_pressure;BME280_temperature;BME280_humidity;BME280_pressure;Samples;Min_cycle;Max_cycle;Signal;HPM_P1;HPM_P2
2023/08/03 00:00:19;;;;;;;4.70;1.80;;;16.00;99.90;;;15.79;100.00;95904.94;5006549;28;20041;-36
2023/08/03 00:02:46;;;;;;;4.22;1.48;;;16.00;99.90;;;15.77;100.00;95912.19;5007265;28;20055;-36
2023/08/03 00:05:16;;;;;;;10.70;2.05;;;16.00;99.90;;;15.71;100.00;95916.19;5006610;28;20072;-38
2023/08/03 00:07:43;;;;;;;7.10;1.58;;;16.00;99.90;;;15.71;100.00;95908.19;5002513;28;20033;-36
2023/08/03 00:10:09;;;;;;;5.25;1.52;;;15.90;99.90;;;15.71;100.00;95910.03;5006877;28;20865;-37
2023/08/03 00:12:34;;;;;;;6.32;1.73;;;16.00;99.90;;;15.68;100.00;95903.13;5009828;28;20059;-36
2023/08/03 00:15:00;;;;;;;5.47;1.58;;;16.00;99.90;;;15.83;100.00;95925.84;5005583;28;20045;-36
2023/08/03 00:17:26;;;;;;;3.25;1.05;;;16.00;99.90;;;15.91;100.00;95927.03;5005830;28;20443;-37
2023/08/03 00:19:51;;;;;;;9.05;2.08;;;16.10;99.90;;;15.98;100.00;95920.25;5008833;28;20055;-37
2023/08/03 00:22:17;;;;;;;4.90;1.63;;;16.10;99.90;;;16.07;100.00;95919.47;5007886;28;20029;-37
2023/08/03 00:24:43;;;;;;;6.55;2.05;;;16.30;99.90;;;16.12;100.00;95911.97;5003103;28;20044;-37
2023/08/03 00:27:09;;;;;;;7.60;1.70;;;16.30;99.90;;;16.20;100.00;95921.97;5003583;28;20357;-36
2023/08/03 00:29:34;;;;;;;6.60;1.88;;;16.40;99.90;;;16.18;100.00;95905.28;5009055;28;20375;-37
2023/08/03 00:32:01;;;;;;;9.73;1.52;;;16.40;99.90;;;16.22;100.00;95907.59;5008035;28;20543;-38
2023/08/03 00:34:29;;;;;;;5.82;1.50;;;16.50;99.90;;;16.19;100.00;95894.53;5006506;28;21027;-38
2023/08/03 00:36:55;;;;;;;7.43;1.80;;;16.40;99.90;;;16.10;100.00;95891.81;5008463;28;20033;-37
2023/08/03 00:39:21;;;;;;;5.05;1.65;;;16.30;99.90;;;16.03;100.00;95902.09;5006312;28;20124;-37
2023/08/03 00:41:47;;;;;;;4.05;1.30;;;16.20;99.90;;;15.78;100.00;95872.22;4998695;28;21052;-38
2023/08/03 00:44:13;;;;;;;5.50;1.70;;;16.20;99.90;;;15.87;100.00;95891.03;5009247;28;20034;-37
2023/08/03 00:46:39;;;;;;;3.95;1.33;;;16.20;99.90;;;15.80;100.00;95877.41;5007667;28;20033;-36
2023/08/03 00:49:04;;;;;;;15.77;1.90;;;16.20;99.90;;;15.97;100.00;95911.44;5009858;28;20025;-37
2023/08/03 00:51:30;;;;;;;5.43;1.92;;;16.20;99.90;;;16.08;100.00;95915.00;5001943;28;20026;-37
2023/08/03 00:53:56;;;;;;;8.00;1.67;;;16.20;99.90;;;15.96;100.00;95901.75;5001350;28;20079;-37
2023/08/03 00:56:22;;;;;;;4.65;1.80;;;16.20;99.90;;;16.02;100.00;95889.75;5005056;28;20026;-38
2023/08/03 00:58:47;;;;;;;4.20;1.50;;;16.20;99.90;;;16.03;100.00;95908.25;5007730;28;20033;-38
2023/08/03 01:01:13;;;;;;;8.60;1.88;;;16.20;99.90;;;16.02;100.00;95909.25;5003350;28;20745;-39
2023/08/03 01:03:39;;;;;;;6.68;1.55;;;16.20;99.90;;;16.01;100.00;95904.88;5005022;28;20038;-37
2023/08/03 01:06:04;;;;;;;9.27;1.67;;;16.20;99.90;;;15.96;100.00;95901.75;5002649;28;20030;-37
2023/08/03 01:08:30;;;;;;;6.57;1.65;;;16.20;99.90;;;15.95;100.00;95908.06;5005587;28;20121;-37
2023/08/03 01:10:56;;;;;;;7.53;1.83;;;16.10;99.90;;;15.99;100.00;95913.97;4999414;28;20402;-38
2023/08/03 01:13:22;;;;;;;7.32;1.77;;;16.10;99.90;;;16.07;100.00;95900.03;5001537;28;20018;-39
2023/08/03 01:15:49;;;;;;;7.25;1.60;;;16.20;99.90;;;16.14;100.00;95914.50;5007500;28;20172;-37
2023/08/03 01:18:15;;;;;;;10.15;1.80;;;16.30;99.90;;;16.26;100.00;95912.63;4995982;28;20805;-38
2023/08/03 01:20:42;;;;;;;5.40;1.63;;;16.40;99.90;;;16.28;100.00;95911.53;5010035;28;21881;-37
2023/08/03 01:23:08;;;;;;;7.18;1.88;;;16.40;99.90;;;16.31;100.00;95913.09;5000698;28;20083;-37
2023/08/03 01:25:36;;;;;;;17.58;2.22;;;16.40;99.90;;;16.33;100.00;95913.78;5009635;28;20547;-37
2023/08/03 01:28:05;;;;;;;9.35;1.98;;;16.50;99.90;;;16.29;100.00;95893.75;5009729;28;20159;-37
2023/08/03 01:30:31;;;;;;;8.00;1.60;;;16.50;99.90;;;16.25;100.00;95900.31;5007464;28;20033;-37
2023/08/03 01:32:57;;;;;;;7.50;2.08;;;16.40;99.90;;;16.30;100.00;95896.28;5014450;28;20029;-37
2023/08/03 01:35:23;;;;;;;9.10;2.08;;;16.40;99.90;;;16.27;100.00;95901.03;5008502;28;20049;-37
2023/08/03 01:37:51;;;;;;;9.65;2.17;;;16.40;99.90;;;16.32;100.00;95875.72;5013385;28;20041;-37
2023/08/03 01:40:18;;;;;;;6.20;1.85;;;16.40;99.90;;;16.30;100.00;95895.47;5013909;28;20087;-38
2023/08/03 01:42:43;;;;;;;4.72;1.70;;;16.40;99.90;;;16.33;100.00;95876.56;5011867;28;20040;-37
2023/08/03 01:45:09;;;;;;;5.30;1.55;;;16.40;99.90;;;16.33;100.00;95895.19;5009978;28;20038;-37
2023/08/03 01:47:35;;;;;;;8.05;1.80;;;16.40;99.90;;;16.30;100.00;95898.13;5013671;28;20029;-37
2023/08/03 01:50:01;;;;;;;7.30;1.55;;;16.40;99.90;;;16.28;100.00;95900.06;5005418;28;20037;-38
2023/08/03 01:52:27;;;;;;;4.22;1.42;;;16.40;99.90;;;16.21;100.00;95878.44;5010963;28;20038;-38
2023/08/03 01:54:53;;;;;;;6.10;1.50;;;16.40;99.90;;;16.19;100.00;95881.22;5013134;28;20540;-38
2023/08/03 01:57:19;;;;;;;6.53;1.60;;;16.40;99.90;;;16.21;100.00;95894.41;5012602;28;20069;-37
2023/08/03 01:59:45;;;;;;;7.35;1.52;;;16.40;99.90;;;16.22;100.00;95904.94;5011492;28;20560;-38
2023/08/03 02:02:12;;;;;;;8.50;1.40;;;16.30;99.90;;;16.26;100.00;95913.50;5009502;28;20512;-37
2023/08/03 02:04:38;;;;;;;4.63;1.30;;;16.40;99.90;;;16.13;100.00;95897.72;5007098;28;20092;-37
2023/08/03 02:07:53;;;;;;;9.90;1.35;;;16.40;99.90;;;16.14;100.00;95918.00;5013586;28;20210;-37
2023/08/03 02:10:20;;;;;;;8.73;1.25;;;16.30;99.90;;;16.05;100.00;95913.44;5001836;28;20056;-37
2023/08/03 02:12:45;;;;;;;9.05;1.48;;;16.30;99.90;;;16.03;100.00;95921.53;5009705;28;20116;-37
2023/08/03 02:15:13;;;;;;;9.20;1.67;;;16.20;99.90;;;15.98;100.00;95921.06;5004260;28;20029;-38
2023/08/03 02:17:39;;;;;;;7.00;1.83;;;16.20;99.90;;;15.90;100.00;95920.88;5011646;28;20091;-38
2023/08/03 02:20:07;;;;;;;7.28;1.40;;;16.10;99.90;;;15.91;100.00;95932.34;5011138;28;20037;-38
2023/08/03 02:22:32;;;;;;;4.65;1.60;;;16.00;99.90;;;15.88;100.00;95927.28;5015012;28;20040;-38
2023/08/03 02:24:58;;;;;;;10.20;1.35;;;16.00;99.90;;;15.88;100.00;95925.47;5011372;28;20398;-38
2023/08/03 02:27:24;;;;;;;9.30;1.98;;;16.10;99.90;;;15.91;100.00;95927.03;5014114;28;20212;-38
2023/08/03 02:29:49;;;;;;;5.00;1.40;;;16.10;99.90;;;15.82;100.00;95932.13;4990860;28;20481;-38
2023/08/03 02:32:15;;;;;;;6.85;1.40;;;16.00;99.90;;;15.80;100.00;95944.69;5011305;28;20034;-37
2023/08/03 02:34:41;;;;;;;7.00;1.27;;;16.00;99.90;;;15.86;100.00;95942.50;5006296;28;20131;-38
2023/08/03 02:37:06;;;;;;;6.40;1.42;;;16.00;99.90;;;15.83;100.00;95936.47;5015107;28;20032;-38
2023/08/03 02:39:32;;;;;;;5.05;1.05;;;16.00;99.90;;;15.87;100.00;95947.69;5011628;28;20528;-37
2023/08/03 02:41:58;;;;;;;7.57;1.45;;;16.10;99.90;;;15.93;100.00;95947.19;5011918;28;20037;-37
2023/08/03 02:44:23;;;;;;;8.85;1.75;;;16.10;99.90;;;15.94;100.00;95953.38;5008057;28;20518;-37
2023/08/03 02:46:49;;;;;;;8.68;1.50;;;16.10;99.90;;;15.91;100.00;95954.44;5011486;28;20051;-38
2023/08/03 02:49:15;;;;;;;9.88;1.63;;;16.10;99.90;;;15.90;100.00;95933.31;5010449;28;20049;-38
2023/08/03 02:51:43;;;;;;;7.65;1.13;;;16.10;99.90;;;15.84;100.00;95935.53;5012768;28;20466;-38
2023/08/03 02:54:09;;;;;;;6.18;1.35;;;16.10;99.90;;;15.78;100.00;95933.34;5008963;28;20091;-38
2023/08/03 02:56:35;;;;;;;7.80;1.80;;;16.00;99.90;;;15.69;100.00;95927.91;5014690;28;20041;-38
2023/08/03 02:59:00;;;;;;;7.40;1.55;;;15.90;99.90;;;15.67;100.00;95930.69;5006991;28;20040;-38
2023/08/03 03:01:26;;;;;;;5.53;1.48;;;15.90;99.90;;;15.62;100.00;95930.22;5008038;28;20107;-37
2023/08/03 03:03:52;;;;;;;6.30;1.40;;;15.80;99.90;;;15.56;100.00;95936.00;5009766;28;20111;-38
2023/08/03 03:06:17;;;;;;;12.27;1.67;;;15.80;99.90;;;15.55;100.00;95923.69;5006593;28;20394;-37
2023/08/03 03:08:43;;;;;;;9.45;1.80;;;15.80;99.90;;;15.49;100.00;95929.50;5012095;28;20029;-38
2023/08/03 03:11:09;;;;;;;4.55;1.33;;;15.70;99.90;;;15.43;100.00;95934.34;5005473;28;20029;-37
2023/08/03 03:13:34;;;;;;;9.13;1.67;;;15.70;99.90;;;15.43;100.00;95934.34;5006441;28;20087;-36
2023/08/03 03:16:00;;;;;;;6.00;1.55;;;15.60;99.90;;;15.43;100.00;95939.66;5009301;28;20041;-36
2023/08/03 03:18:26;;;;;;;12.75;1.90;;;15.60;99.90;;;15.40;100.00;95941.72;5011158;28;20037;-36
2023/08/03 03:20:51;;;;;;;11.77;1.95;;;15.60;99.90;;;15.16;100.00;95904.66;5003756;28;20042;-36
2023/08/03 03:23:17;;;;;;;5.50;1.48;;;15.60;99.90;;;15.36;100.00;95940.25;5012432;28;20550;-39
2023/08/03 03:25:43;;;;;;;8.93;1.88;;;15.60;99.90;;;15.31;100.00;95943.28;5005658;28;20038;-37
2023/08/03 03:28:08;;;;;;;6.82;1.90;;;15.60;99.90;;;15.36;100.00;95933.16;5009526;28;20025;-37
2023/08/03 03:30:34;;;;;;;6.95;1.95;;;15.50;99.90;;;15.32;100.00;95944.13;5005478;28;20033;-37
2023/08/03 03:33:00;;;;;;;4.95;1.60;;;15.50;99.90;;;15.22;100.00;95939.53;5009553;28;20064;-37
2023/08/03 03:35:26;;;;;;;6.03;1.70;;;15.50;99.90;;;15.24;100.00;95940.28;5008441;28;20035;-37
2023/08/03 03:37:51;;;;;;;7.53;1.70;;;15.50;99.90;;;15.30;100.00;95940.75;5009656;28;20052;-37
2023/08/03 03:40:17;;;;;;;10.52;2.00;;;15.50;99.90;;;15.32;100.00;95931.69;5010181;28;20036;-37
2023/08/03 03:42:43;;;;;;;8.52;1.80;;;15.50;99.90;;;15.36;100.00;95916.34;5011115;28;20033;-37
2023/08/03 03:45:09;;;;;;;7.38;2.10;;;15.50;99.90;;;15.30;100.00;95917.69;5011986;28;20030;-37
2023/08/03 03:47:34;;;;;;;8.82;1.63;;;15.50;99.90;;;15.32;100.00;95910.44;5005366;28;20336;-37
2023/08/03 03:50:00;;;;;;;9.10;1.60;;;15.50;99.90;;;15.33;100.00;95912.13;5008659;28;20022;-36
2023/08/03 03:52:26;;;;;;;6.03;1.58;;;15.50;99.90;;;15.30;100.00;95916.84;5006622;28;20136;-37
2023/08/03 03:54:52;;;;;;;7.22;2.00;;;15.50;99.90;;;15.36;100.00;95922.53;5002828;28;20029;-37
2023/08/03 03:57:17;;;;;;;8.43;1.55;;;15.60;99.90;;;15.40;100.00;95933.75;5010497;28;20029;-37
2023/08/03 03:59:43;;;;;;;6.72;1.50;;;15.60;99.90;;;15.40;100.00;95929.28;5008874;28;20497;-37
2023/08/03 04:02:09;;;;;;;5.60;1.35;;;15.60;99.90;;;15.43;100.00;95936.13;5008848;28;20044;-37
2023/08/03 04:04:34;;;;;;;6.35;1.52;;;15.60;99.90;;;15.36;100.00;95919.00;5011413;28;20067;-37
2023/08/03 04:07:00;;;;;;;3.72;1.10;;;15.60;99.90;;;15.33;100.00;95925.41;5013698;28;20029;-37
2023/08/03 04:09:26;;;;;;;4.55;1.15;;;15.50;99.90;;;15.26;100.00;95925.06;5004816;28;20524;-37
2023/08/03 04:11:51;;;;;;;6.88;1.58;;;15.50;99.90;;;15.23;100.00;95933.25;5008628;28;20048;-37
2023/08/03 04:14:17;;;;;;;5.65;1.42;;;15.50;99.90;;;15.08;100.00;95902.63;5004673;28;20432;-37
2023/08/03 04:16:43;;;;;;;9.70;2.53;;;15.50;99.90;;;15.22;100.00;95946.69;4999892;28;20461;-37
2023/08/03 04:19:08;;;;;;;4.85;1.55;;;15.40;99.90;;;15.22;100.00;95941.38;5004026;28;20022;-37
2023/08/03 04:21:34;;;;;;;6.70;1.38;;;15.40;99.90;;;15.24;100.00;95947.41;5008491;28;20099;-37
2023/08/03 04:24:00;;;;;;;6.47;1.13;;;15.50;99.90;;;15.31;100.00;95976.94;5001495;28;20435;-37
2023/08/03 04:26:25;;;;;;;7.85;1.30;;;15.50;99.90;;;15.29;100.00;95966.47;5009196;28;20034;-37
2023/08/03 04:28:51;;;;;;;4.65;1.17;;;15.50;99.90;;;15.25;100.00;95979.16;5011872;28;20394;-37
2023/08/03 04:31:17;;;;;;;5.35;1.00;;;15.50;99.90;;;15.17;100.00;95989.50;5009471;28;20037;-39
2023/08/03 04:33:43;;;;;;;4.90;1.00;;;15.50;99.90;;;15.29;100.00;95990.38;5004372;28;20026;-38
2023/08/03 04:36:08;;;;;;;3.58;1.05;;;15.50;99.90;;;15.34;100.00;95997.97;5007626;28;20033;-38
2023/08/03 04:38:34;;;;;;;4.70;1.15;;;15.50;99.90;;;15.33;100.00;95991.81;5010169;28;20029;-38
2023/08/03 04:41:02;;;;;;;4.78;1.10;;;15.50;99.90;;;15.42;100.00;96012.34;5006049;28;20064;-37
2023/08/03 04:43:28;;;;;;;4.43;1.10;;;15.60;99.90;;;15.38;100.00;96018.88;5007407;28;20032;-37
2023/08/03 04:45:54;;;;;;;6.68;1.02;;;15.60;99.90;;;15.46;100.00;96012.94;5005707;28;20033;-38
2023/08/03 04:48:20;;;;;;;5.05;0.70;;;15.70;99.90;;;15.40;100.00;96018.75;5011536;28;20114;-38
2023/08/03 04:50:46;;;;;;;3.00;1.10;;;15.70;99.90;;;15.49;100.00;96035.75;5010953;28;20037;-37
2023/08/03 04:53:11;;;;;;;5.85;0.95;;;15.70;99.90;;;15.53;100.00;96034.56;5009090;28;20046;-38
2023/08/03 04:55:37;;;;;;;5.63;1.02;;;15.80;99.90;;;15.58;100.00;96027.94;5011152;28;20120;-38
2023/08/03 04:58:03;;;;;;;4.40;0.95;;;15.80;99.90;;;15.65;100.00;96039.75;5000787;28;20044;-37
2023/08/03 05:00:28;;;;;;;5.20;1.05;;;15.90;99.90;;;15.65;100.00;96052.22;5000737;28;20067;-38
2023/08/03 05:02:54;;;;;;;4.00;0.93;;;15.90;99.90;;;15.69;100.00;96058.13;5001842;28;20046;-39
2023/08/03 05:05:20;;;;;;;5.40;1.10;;;15.90;99.90;;;15.73;100.00;96056.91;5005063;28;20637;-38
2023/08/03 05:07:46;;;;;;;7.35;0.95;;;15.90;99.90;;;15.70;100.00;96057.16;5004990;28;20926;-38
2023/08/03 05:10:17;;;;;;;3.55;0.82;;;15.90;99.90;;;15.62;100.00;96060.41;4995329;28;20504;-38
2023/08/03 05:12:43;;;;;;;2.13;0.80;;;15.90;99.90;;;15.57;100.00;96073.22;4999026;28;20105;-35
2023/08/03 05:15:09;;;;;;;3.10;0.70;;;15.80;99.90;;;15.51;100.00;96069.22;4998623;28;20037;-36
2023/08/03 05:17:35;;;;;;;1.70;0.70;;;15.80;99.90;;;15.44;100.00;96074.16;5003242;28;20033;-36
2023/08/03 05:20:01;;;;;;;3.92;1.27;;;15.70;99.90;;;15.43;100.00;96093.75;5003752;28;20098;-37
2023/08/03 05:22:26;;;;;;;6.85;1.10;;;15.70;99.90;;;15.50;100.00;96083.47;5001814;28;20125;-36
2023/08/03 05:24:52;;;;;;;10.70;1.50;;;15.70;99.90;;;15.55;100.00;96078.63;5004812;28;20045;-37
2023/08/03 05:27:18;;;;;;;4.32;0.80;;;15.80;99.90;;;15.56;100.00;96092.75;5001940;28;20121;-37
2023/08/03 05:29:44;;;;;;;4.97;1.30;;;15.80;99.90;;;15.59;100.00;96109.31;5002712;28;20037;-37
2023/08/03 05:32:10;;;;;;;3.33;1.00;;;15.80;99.90;;;15.54;100.00;96071.66;5000360;28;20047;-37
2023/08/03 05:34:36;;;;;;;4.07;0.90;;;15.90;99.90;;;15.63;100.00;96093.97;5003201;28;20042;-37
2023/08/03 05:37:02;;;;;;;2.88;0.80;;;15.90;99.90;;;15.67;100.00;96103.41;5001199;28;20107;-37
2023/08/03 05:39:27;;;;;;;3.47;0.85;;;15.90;99.90;;;15.65;100.00;96108.00;5003342;28;20037;-37
2023/08/03 05:41:54;;;;;;;4.47;1.00;;;15.90;99.90;;;15.58;100.00;96104.13;5000109;28;20036;-37
2023/08/03 05:44:20;;;;;;;1.15;0.50;;;15.90;99.90;;;15.67;100.00;96111.41;4992439;28;20250;-37
2023/08/03 05:46:46;;;;;;;3.38;0.70;;;15.90;99.90;;;15.71;100.00;96128.78;5002052;28;20525;-37
2023/08/03 05:49:14;;;;;;;6.22;1.17;;;16.00;99.90;;;15.87;100.00;96130.28;4992763;28;20148;-36
2023/08/03 05:51:40;;;;;;;3.05;0.93;;;16.10;99.90;;;16.01;100.00;96135.38;4996157;28;20149;-37
2023/08/03 05:54:18;;;;;;;2.72;1.00;;;16.30;99.90;;;16.14;100.00;96125.44;4999437;28;20021;-38
2023/08/03 05:56:45;;;;;;;4.55;0.60;;;16.40;99.90;;;16.23;100.00;96135.34;4999227;28;20354;-37
2023/08/03 05:59:20;;;;;;;3.05;0.90;;;16.50;99.90;;;16.34;100.00;96120.34;4999028;28;20432;-37
2023/08/03 06:01:50;;;;;;;1.33;0.60;;;16.60;99.90;;;16.44;100.00;96125.75;5002141;28;20034;-37
2023/08/03 06:04:17;;;;;;;1.15;0.60;;;16.80;99.90;;;16.40;100.00;96103.88;5000695;28;20121;-37
2023/08/03 06:06:46;;;;;;;5.93;1.05;;;16.80;99.90;;;16.50;100.00;96126.09;5004249;28;20416;-37
2023/08/03 06:09:13;;;;;;;3.28;0.68;;;16.80;99.90;;;16.48;100.00;96141.34;5001787;28;20025;-37
2023/08/03 06:11:40;;;;;;;2.35;0.82;;;16.80;99.90;;;16.42;100.00;96131.22;5004443;28;20025;-37
2023/08/03 06:14:11;;;;;;;3.67;0.65;;;16.70;99.90;;;16.39;100.00;96139.44;5005829;28;20091;-37
2023/08/03 06:16:37;;;;;;;3.15;0.68;;;16.70;99.90;;;16.29;100.00;96127.84;5002293;28;20033;-37
2023/08/03 06:19:05;;;;;;;6.40;1.15;;;16.60;99.90;;;16.34;100.00;96141.63;5005710;28;20044;-37
2023/08/03 06:21:30;;;;;;;5.45;0.85;;;16.60;99.90;;;16.31;100.00;96148.03;5006679;28;20396;-37
2023/08/03 06:23:58;;;;;;;4.90;1.00;;;16.60;99.90;;;16.31;100.00;96141.84;4991614;28;20041;-37
2023/08/03 06:26:26;;;;;;;3.72;0.80;;;16.60;99.90;;;16.30;100.00;96138.34;4999756;28;20143;-37
2023/08/03 06:28:54;;;;;;;3.40;0.85;;;16.60;99.90;;;16.22;100.00;96123.03;5006098;28;20049;-37
2023/08/03 06:31:40;;;;;;;3.63;0.80;;;16.50;99.90;;;16.20;100.00;96143.59;5006478;28;20073;-37
2023/08/03 06:34:06;;;;;;;2.00;0.75;;;16.50;99.90;;;16.21;100.00;96147.91;5003760;28;20774;-37
2023/08/03 06:36:35;;;;;;;4.00;0.95;;;16.50;99.90;;;16.36;100.00;96140.50;4997193;28;20390;-36
2023/08/03 06:39:01;;;;;;;3.72;0.85;;;16.60;99.90;;;16.60;100.00;96131.53;5007919;28;20386;-38
2023/08/03 06:41:27;;;;;;;3.03;0.88;;;16.80;99.90;;;16.81;100.00;96155.53;5003275;28;20030;-38
2023/08/03 06:43:56;;;;;;;2.83;0.83;;;17.00;99.90;;;17.01;100.00;96153.09;5012497;28;20056;-37
2023/08/03 06:46:24;;;;;;;2.47;0.93;;;17.20;99.90;;;17.18;98.12;96149.88;5013596;28;20033;-37
2023/08/03 06:48:51;;;;;;;4.85;1.10;;;17.40;99.90;;;17.34;94.78;96133.47;5008936;28;21963;-37
2023/08/03 06:51:16;;;;;;;2.05;0.77;;;17.60;99.90;;;17.57;96.92;96158.16;5008040;28;20187;-37
2023/08/03 06:53:43;;;;;;;4.03;1.08;;;17.70;99.90;;;17.55;90.37;96130.81;5009998;28;20394;-37
2023/08/03 06:56:09;;;;;;;4.22;1.00;;;17.90;99.90;;;17.80;84.81;96163.34;5009345;28;20045;-37
2023/08/03 06:58:34;;;;;;;3.85;0.93;;;18.00;99.90;;;17.88;84.05;96175.06;5012807;28;20034;-36
2023/08/03 07:01:00;;;;;;;4.53;0.90;;;18.10;99.90;;;17.91;77.63;96179.31;5007505;28;20179;-35
2023/08/03 07:03:26;;;;;;;1.58;0.82;;;18.20;99.90;;;17.97;77.73;96162.78;5011949;28;20033;-38
2023/08/03 07:05:52;;;;;;;4.20;0.82;;;18.20;99.90;;;18.08;79.86;96167.19;5011567;28;20124;-37
2023/08/03 07:08:17;;;;;;;5.40;0.90;;;18.30;99.90;;;18.16;78.43;96174.50;5011463;28;20029;-37
2023/08/03 07:10:43;;;;;;;1.67;1.00;;;18.40;99.90;;;18.10;77.33;96187.38;5009063;28;20053;-38
2023/08/03 07:13:09;;;;;;;2.28;0.90;;;18.30;99.90;;;18.24;77.13;96170.19;5004373;28;20120;-37
2023/08/03 07:15:35;;;;;;;5.93;0.93;;;18.30;99.90;;;18.40;80.97;96161.69;5011075;28;20025;-38
2023/08/03 07:18:03;;;;;;;2.25;0.68;;;18.50;99.90;;;18.66;73.09;96185.22;5008971;28;20124;-37
2023/08/03 07:20:29;;;;;;;1.95;0.70;;;18.70;99.90;;;18.69;71.99;96171.59;5011705;28;20037;-38
2023/08/03 07:22:55;;;;;;;3.83;0.85;;;18.80;99.90;;;18.90;71.16;96187.56;5008984;28;20041;-38
2023/08/03 07:25:21;;;;;;;4.25;0.90;;;19.00;99.90;;;18.87;67.57;96186.00;5003355;28;20038;-37
2023/08/03 07:27:46;;;;;;;1.95;0.68;;;19.00;99.90;;;19.07;69.80;96186.03;5002013;28;20021;-37
2023/08/03 07:30:12;;;;;;;1.67;0.80;;;19.10;99.90;;;19.19;70.71;96179.59;5006555;28;20033;-38
2023/08/03 07:32:38;;;;;;;4.25;0.70;;;19.20;99.90;;;19.33;69.29;96181.00;5008621;28;20057;-37
2023/08/03 07:35:04;;;;;;;1.95;0.68;;;19.40;99.90;;;19.28;66.68;96193.94;5004238;28;20044;-38
2023/08/03 07:37:30;;;;;;;4.25;0.95;;;19.40;99.90;;;19.25;66.67;96188.88;4998641;28;20127;-39
2023/08/03 07:39:56;;;;;;;3.90;0.90;;;19.40;99.90;;;19.30;64.01;96202.66;5007377;28;20361;-38
2023/08/03 07:42:22;;;;;;;2.00;0.68;;;19.50;99.90;;;19.21;64.99;96212.34;5012277;28;20493;-38
2023/08/03 07:44:52;;;;;;;4.53;0.65;;;19.40;99.90;;;18.99;62.63;96208.09;5009706;28;20120;-37
2023/08/03 07:47:17;;;;;;;1.90;0.80;;;19.30;99.90;;;18.71;67.40;96196.34;5008823;28;20393;-38
2023/08/03 07:49:43;;;;;;;3.40;0.80;;;19.00;99.90;;;18.54;72.57;96203.19;4999885;28;20032;-37
2023/08/03 07:52:09;;;;;;;3.33;0.60;;;18.80;99.90;;;18.46;68.91;96211.84;5003033;28;20110;-38
2023/08/03 07:54:35;;;;;;;2.05;0.70;;;18.70;99.90;;;18.36;70.05;96218.13;5007645;28;20075;-38
2023/08/03 07:57:00;;;;;;;2.15;0.70;;;18.60;99.90;;;18.33;70.82;96197.91;5005849;28;20434;-37
2023/08/03 07:59:26;;;;;;;3.58;0.80;;;18.60;99.90;;;18.76;70.92;96215.47;5010363;28;20040;-37
2023/08/03 08:01:51;;;;;;;3.00;0.90;;;18.90;99.90;;;18.99;72.36;96194.75;5007189;28;20095;-38
2023/08/03 08:04:18;;;;;;;3.47;0.98;;;19.20;99.90;;;19.34;68.96;96213.91;5007065;28;20069;-38
2023/08/03 08:06:45;;;;;;;2.55;0.95;;;19.50;99.90;;;19.69;65.83;96224.03;5008909;28;20030;-38
2023/08/03 08:09:11;;;;;;;4.70;0.70;;;19.80;99.90;;;19.86;62.82;96221.66;5003701;28;20714;-38
2023/08/03 08:11:36;;;;;;;2.08;0.82;;;20.10;99.90;;;19.88;60.96;96227.72;5006981;28;20493;-37
2023/08/03 08:14:02;;;;;;;3.67;0.93;;;20.20;99.90;;;20.03;60.67;96245.03;5010196;28;20040;-38
2023/08/03 08:16:28;;;;;;;5.40;0.90;;;20.40;99.90;;;20.21;61.70;96240.59;5004025;28;20095;-37
2023/08/03 08:18:54;;;;;;;7.43;0.90;;;20.50;99.90;;;20.35;61.05;96235.75;5009462;28;20037;-37
2023/08/03 08:21:19;;;;;;;5.35;0.90;;;20.70;99.90;;;20.63;61.69;96234.00;5004598;28;20026;-38
2023/08/03 08:23:45;;;;;;;5.93;0.90;;;21.00;99.90;;;20.77;61.45;96241.56;5007105;28;20040;-36
2023/08/03 08:26:17;;;;;;;3.20;1.23;;;21.10;99.90;;;20.81;59.76;96228.69;4986662;28;20033;-37
2023/08/03 08:28:45;;;;;;;4.57;0.83;;;21.20;99.90;;;20.79;60.24;96250.28;5004275;28;20080;-38
2023/08/03 08:31:11;;;;;;;4.35;0.80;;;21.10;99.90;;;20.59;59.02;96246.81;4989723;28;21825;-38
2023/08/03 08:33:38;;;;;;;1.75;0.60;;;21.10;99.90;;;20.36;58.61;96240.13;4994824;28;20057;-38
2023/08/03 08:36:04;;;;;;;2.70;0.90;;;20.90;99.90;;;20.22;61.35;96257.50;4999427;28;20152;-38
2023/08/03 08:38:30;;;;;;;3.10;0.73;;;20.80;99.90;;;20.32;59.13;96242.25;5002173;28;20034;-37
2023/08/03 08:41:00;;;;;;;2.55;0.70;;;20.80;99.90;;;20.50;59.17;96233.47;4996504;28;20037;-37
2023/08/03 08:43:27;;;;;;;3.35;0.80;;;21.00;99.90;;;20.77;57.46;96233.50;5012409;28;20029;-37
2023/08/03 08:45:53;;;;;;;2.25;0.80;;;21.20;99.90;;;21.10;58.95;96249.13;4991727;28;20037;-38
2023/08/03 08:48:19;;;;;;;3.40;0.70;;;21.40;99.90;;;21.21;59.95;96242.72;5008107;28;20048;-37
2023/08/03 08:50:47;;;;;;;3.10;0.98;;;21.60;99.90;;;21.20;57.37;96238.38;4998791;28;20433;-38
2023/08/03 08:53:15;;;;;;;2.28;0.77;;;21.70;99.90;;;21.09;57.47;96248.31;4998470;28;20437;-38
2023/08/03 08:55:41;;;;;;;3.17;0.70;;;21.60;99.90;;;21.10;58.52;96239.28;5006855;28;20035;-38
2023/08/03 08:58:07;;;;;;;2.33;0.85;;;21.50;99.90;;;20.96;59.77;96219.19;5004703;28;20041;-38
2023/08/03 09:00:45;;;;;;;1.52;0.60;;;21.60;99.90;;;21.06;58.30;96259.31;5004908;28;20928;-38
2023/08/03 09:03:12;;;;;;;2.08;0.82;;;21.70;99.90;;;21.19;57.57;96261.63;5004227;28;20436;-38
2023/08/03 09:05:39;;;;;;;3.55;0.70;;;21.70;99.90;;;21.24;64.84;96256.66;5004454;28;20404;-38
2023/08/03 09:08:16;;;;;;;1.20;0.60;;;21.70;99.90;;;21.23;57.90;96270.22;5005105;28;20108;-38
2023/08/03 09:10:55;;;;;;;2.42;0.70;;;21.70;99.90;;;21.15;55.98;96266.44;5009453;28;20022;-38
2023/08/03 09:13:37;;;;;;;2.25;0.90;;;21.70;99.90;;;21.23;55.94;96270.22;5003287;28;20030;-38
2023/08/03 09:16:03;;;;;;;2.10;0.75;;;21.70;99.90;;;21.46;55.84;96276.91;5003177;28;20092;-38
2023/08/03 09:18:31;;;;;;;3.55;0.68;;;21.80;99.90;;;21.64;56.82;96278.72;5011754;28;20033;-38
2023/08/03 09:21:11;;;;;;;1.95;0.75;;;22.00;99.90;;;21.67;54.49;96268.53;5009739;28;20136;-38
2023/08/03 09:23:36;;;;;;;2.30;0.52;;;22.10;99.90;;;21.61;54.85;96287.09;5007027;28;20037;-38
2023/08/03 09:26:03;;;;;;;2.97;0.60;;;22.20;99.90;;;21.79;53.92;96284.41;5003101;28;20634;-38
2023/08/03 09:28:43;;;;;;;1.05;0.47;;;22.30;99.90;;;21.96;53.57;96288.06;5003940;28;20262;-38
2023/08/03 09:31:10;;;;;;;2.92;0.73;;;22.50;99.90;;;22.03;51.91;96286.47;5008273;28;20029;-38
2023/08/03 09:33:37;;;;;;;1.30;0.57;;;22.50;99.20;;;21.92;53.32;96283.00;5007002;28;20068;-38
2023/08/03 09:36:08;;;;;;;2.10;0.70;;;22.50;99.90;;;21.80;53.85;96270.81;5007576;28;20060;-38
2023/08/03 09:38:34;;;;;;;4.60;0.60;;;22.40;99.90;;;21.52;53.28;96294.22;5007021;28;20128;-38
2023/08/03 09:41:00;;;;;;;2.25;0.63;;;22.20;99.90;;;21.54;56.76;96293.06;5006900;28;20045;-38
2023/08/03 09:43:27;;;;;;;1.75;0.55;;;22.00;99.90;;;21.72;54.11;96289.53;5009940;28;20123;-38
2023/08/03 09:45:54;;;;;;;1.23;0.70;;;22.20;99.90;;;21.64;53.81;96298.38;5010563;28;20030;-38
2023/08/03 09:48:20;;;;;;;3.50;0.70;;;22.20;99.70;;;21.76;54.22;96300.81;5009070;28;20171;-38
2023/08/03 09:50:58;;;;;;;2.40;0.50;;;22.20;99.90;;;22.01;54.28;96289.28;5016199;28;20698;-39
2023/08/03 09:53:28;;;;;;;1.65;0.50;;;22.40;99.90;;;22.28;54.24;96312.53;5010689;28;20080;-38
2023/08/03 09:56:03;;;;;;;3.65;0.60;;;22.60;99.90;;;22.51;52.97;96312.03;5012584;28;20383;-38
2023/08/03 09:58:42;;;;;;;1.40;0.50;;;22.80;99.50;;;22.65;51.80;96303.38;5009113;28;20117;-38
2023/08/03 10:01:12;;;;;;;1.25;0.40;;;23.00;98.60;;;22.69;49.79;96322.72;5013664;28;20087;-38
2023/08/03 10:03:43;;;;;;;4.28;0.90;;;23.20;97.80;;;22.83;50.29;96313.25;5015412;28;20040;-38
2023/08/03 10:06:17;;;;;;;2.75;0.70;;;23.20;98.00;;;22.59;50.66;96314.75;5005560;28;20675;-38
2023/08/03 10:08:56;;;;;;;1.95;0.50;;;23.20;97.70;;;22.51;51.04;96319.25;5010233;28;20025;-38
2023/08/03 10:11:27;;;;;;;4.82;0.60;;;23.00;98.00;;;22.41;55.01;96324.72;5009643;28;20741;-38
2023/08/03 10:13:55;;;;;;;1.75;0.50;;;22.80;99.90;;;22.24;54.00;96329.94;5016591;28;20428;-38